sensor_id;sensor_type;location;lat;lon;timestamp;temperature;humidity
54518;DHT22;40423;53.176;6.002;2022-08-21T00:00:37;15.50;99.90
54518;DHT22;40423;53.176;6.002;2022-08-21T00:03:05;15.50;99.90
54518;DHT22;40423;53.176;6.002;2022-08-21T00:05:35;15.50;99.90
54518;DHT22;40423;53.176;6.002;2022-08-21T00:08:02;15.50;99.90
54518;DHT22;40423;53.176;6.002;2022-08-21T00:10:28;15.50;99.90
54518;DHT22;40423;53.176;6.002;2022-08-21T00:12:54;15.50;99.90
54518;DHT22;40423;53.176;6.002;2022-08-21T00:15:25;15.50;99.90
54518;DHT22;40423;53.176;6.002;2022-08-21T00:17:53;15.50;99.90
54518;DHT22;40423;53.176;6.002;2022-08-21T00:20:18;15.50;99.90
54518;DHT22;40423;53.176;6.002;2022-08-21T00:22:45;15.50;99.90
54518;DHT22;40423;53.176;6.002;2022-08-21T00:25:12;15.40;99.90
54518;DHT22;40423;53.176;6.002;2022-08-21T00:27:38;15.40;99.90
54518;DHT22;40423;53.176;6.002;2022-08-21T00:30:06;15.40;99.90
54518;DHT22;40423;53.176;6.002;2022-08-21T00:32:32;15.40;99.90
54518;DHT22;40423;53.176;6.002;2022-08-21T00:34:59;15.30;99.90
54518;DHT22;40423;53.176;6.002;2022-08-21T00:37:24;15.30;99.90
54518;DHT22;40423;53.176;6.002;2022-08-21T00:39:50;15.30;99.90
54518;DHT22;40423;53.176;6.002;2022-08-21T00:42:16;15.20;99.90
54518;DHT22;40423;53.176;6.002;2022-08-21T00:44:46;15.20;99.90
54518;DHT22;40423;53.176;6.002;2022-08-21T00:47:12;15.20;99.90
54518;DHT22;40423;53.176;6.002;2022-08-21T00:49:39;15.20;99.90
54518;DHT22;40423;53.176;6.002;2022-08-21T00:52:08;15.10;99.90
54518;DHT22;40423;53.176;6.002;2022-08-21T00:54:34;15.10;99.90
54518;DHT22;40423;53.176;6.002;2022-08-21T00:57:05;15.20;99.90
54518;DHT22;40423;53.176;6.002;2022-08-21T00:59:35;14.90;99.90
54518;DHT22;40423;53.176;6.002;2022-08-21T01:02:03;15.20;99.90
54518;DHT22;40423;53.176;6.002;2022-08-21T01:04:29;15.10;99.90
54518;DHT22;40423;53.176;6.002;2022-08-21T01:06:55;15.10;99.90
54518;DHT22;40423;53.176;6.002;2022-08-21T01:09:21;15.10;99.90
54518;DHT22;40423;53.176;6.002;2022-08-21T01:11:47;15.10;99.90
54518;DHT22;40423;53.176;6.002;2022-08-21T01:14:14;15.10;99.90
54518;DHT22;40423;53.176;6.002;2022-08-21T01:16:45;15.20;99.90
54518;DHT22;40423;53.176;6.002;2022-08-21T01:19:12;15.10;99.90
54518;DHT22;40423;53.176;6.002;2022-08-21T01:21:38;15.20;99.90
54518;DHT22;40423;53.176;6.002;2022-08-21T01:24:04;15.20;99.90
54518;DHT22;40423;53.176;6.002;2022-08-21T01:26:34;15.20;99.90
54518;DHT22;40423;53.176;6.002;2022-08-21T01:29:16;15.20;99.90
54518;DHT22;40423;53.176;6.002;2022-08-21T01:31:45;15.20;99.90
54518;DHT22;40423;53.176;6.002;2022-08-21T01:34:11;15.10;99.90
54518;DHT22;40423;53.176;6.002;2022-08-21T01:36:37;15.10;99.90
54518;DHT22;40423;53.176;6.002;2022-08-21T01:39:04;15.10;99.90
54518;DHT22;40423;53.176;6.002;2022-08-21T01:41:30;15.10;99.90
54518;DHT22;40423;53.176;6.002;2022-08-21T01:43:56;15.10;99.90
54518;DHT22;40423;53.176;6.002;2022-08-21T01:46:21;15.20;99.90
54518;DHT22;40423;53.176;6.002;2022-08-21T01:48:47;15.10;99.90
54518;DHT22;40423;53.176;6.002;2022-08-21T01:51:13;15.10;99.90
54518;DHT22;40423;53.176;6.002;2022-08-21T01:53:39;15.10;99.90
54518;DHT22;40423;53.176;6.002;2022-08-21T01:56:09;15.10;99.90
54518;DHT22;40423;53.176;6.002;2022-08-21T01:58:36;15.10;99.90
54518;DHT22;40423;53.176;6.002;2022-08-21T02:01:02;15.10;99.90
54518;DHT22;40423;53.176;6.002;2022-08-21T02:03:29;15.10;99.90
54518;DHT22;40423;53.176;6.002;2022-08-21T02:05:55;15.10;99.90
54518;DHT22;40423;53.176;6.002;2022-08-21T02:08:22;15.20;99.90
54518;DHT22;40423;53.176;6.002;2022-08-21T02:10:49;15.10;99.90
54518;DHT22;40423;53.176;6.002;2022-08-21T02:13:15;15.10;99.90
54518;DHT22;40423;53.176;6.002;2022-08-21T02:15:41;15.10;99.90
54518;DHT22;40423;53.176;6.002;2022-08-21T02:18:07;15.10;99.90
54518;DHT22;40423;53.176;6.002;2022-08-21T02:20:39;15.10;99.90
54518;DHT22;40423;53.176;6.002;2022-08-21T02:23:07;15.10;99.90
54518;DHT22;40423;53.176;6.002;2022-08-21T02:25:34;15.00;99.90
54518;DHT22;40423;53.176;6.002;2022-08-21T02:28:06;15.00;99.90
54518;DHT22;40423;53.176;6.002;2022-08-21T02:30:35;15.00;99.90
54518;DHT22;40423;53.176;6.002;2022-08-21T02:33:04;15.00;99.90
54518;DHT22;40423;53.176;6.002;2022-08-21T02:35:30;15.00;99.90
54518;DHT22;40423;53.176;6.002;2022-08-21T02:37:59;14.90;99.90
54518;DHT22;40423;53.176;6.002;2022-08-21T02:40:32;14.90;99.90
54518;DHT22;40423;53.176;6.002;2022-08-21T02:42:59;14.90;99.90
54518;DHT22;40423;53.176;6.002;2022-08-21T02:45:26;14.90;99.90
54518;DHT22;40423;53.176;6.002;2022-08-21T02:48:20;14.90;99.90
54518;DHT22;40423;53.176;6.002;2022-08-21T02:50:50;14.90;99.90
54518;DHT22;40423;53.176;6.002;2022-08-21T02:53:17;14.90;99.90
54518;DHT22;40423;53.176;6.002;2022-08-21T02:55:47;14.90;99.90
54518;DHT22;40423;53.176;6.002;2022-08-21T02:58:15;14.90;99.90
54518;DHT22;40423;53.176;6.002;2022-08-21T03:00:41;14.90;99.90
54518;DHT22;40423;53.176;6.002;2022-08-21T03:03:07;14.90;99.90
54518;DHT22;40423;53.176;6.002;2022-08-21T03:05:34;14.90;99.90
54518;DHT22;40423;53.176;6.002;2022-08-21T03:08:03;14.90;99.90
54518;DHT22;40423;53.176;6.002;2022-08-21T03:10:29;14.80;99.90
54518;DHT22;40423;53.176;6.002;2022-08-21T03:12:56;14.80;99.90
54518;DHT22;40423;53.176;6.002;2022-08-21T03:15:23;14.80;99.90
54518;DHT22;40423;53.176;6.002;2022-08-21T03:17:49;14.80;99.90
54518;DHT22;40423;53.176;6.002;2022-08-21T03:20:18;14.80;99.90
54518;DHT22;40423;53.176;6.002;2022-08-21T03:22:44;14.80;99.90
54518;DHT22;40423;53.176;6.002;2022-08-21T03:25:10;14.80;99.90
54518;DHT22;40423;53.176;6.002;2022-08-21T03:27:36;14.80;99.90
54518;DHT22;40423;53.176;6.002;2022-08-21T03:30:04;14.80;99.90
54518;DHT22;40423;53.176;6.002;2022-08-21T03:32:30;14.80;99.90
54518;DHT22;40423;53.176;6.002;2022-08-21T03:34:57;14.80;99.90
54518;DHT22;40423;53.176;6.002;2022-08-21T03:37:23;14.80;99.90
54518;DHT22;40423;53.176;6.002;2022-08-21T03:39:50;14.80;99.90
54518;DHT22;40423;53.176;6.002;2022-08-21T03:42:16;14.80;99.90
54518;DHT22;40423;53.176;6.002;2022-08-21T03:44:42;14.80;99.90
54518;DHT22;40423;53.176;6.002;2022-08-21T03:47:08;14.80;99.90
54518;DHT22;40423;53.176;6.002;2022-08-21T03:49:35;14.80;99.90
54518;DHT22;40423;53.176;6.002;2022-08-21T03:52:01;14.80;99.90
54518;DHT22;40423;53.176;6.002;2022-08-21T03:54:27;14.80;99.90
54518;DHT22;40423;53.176;6.002;2022-08-21T03:56:53;14.80;99.90
54518;DHT22;40423;53.176;6.002;2022-08-21T03:59:18;14.80;99.90
54518;DHT22;40423;53.176;6.002;2022-08-21T04:01:55;14.80;99.90
54518;DHT22;40423;53.176;6.002;2022-08-21T04:04:22;14.70;99.90
54518;DHT22;40423;53.176;6.002;2022-08-21T04:06:48;14.80;99.90
54518;DHT22;40423;53.176;6.002;2022-08-21T04:09:14;14.80;99.90
54518;DHT22;40423;53.176;6.002;2022-08-21T04:11:40;14.80;99.90
54518;DHT22;40423;53.176;6.002;2022-08-21T04:14:06;14.80;99.90
54518;DHT22;40423;53.176;6.002;2022-08-21T04:16:31;14.70;99.90
54518;DHT22;40423;53.176;6.002;2022-08-21T04:18:57;14.70;99.90
54518;DHT22;40423;53.176;6.002;2022-08-21T04:21:23;14.70;99.90
54518;DHT22;40423;53.176;6.002;2022-08-21T04:23:49;14.70;99.90
54518;DHT22;40423;53.176;6.002;2022-08-21T04:26:15;14.70;99.90
54518;DHT22;40423;53.176;6.002;2022-08-21T04:28:41;14.70;99.90
54518;DHT22;40423;53.176;6.002;2022-08-21T04:31:08;14.70;99.90
54518;DHT22;40423;53.176;6.002;2022-08-21T04:33:34;14.70;99.90
54518;DHT22;40423;53.176;6.002;2022-08-21T04:36:00;14.70;99.90
54518;DHT22;40423;53.176;6.002;2022-08-21T04:38:27;14.70;99.90
54518;DHT22;40423;53.176;6.002;2022-08-21T04:40:52;14.70;99.90
54518;DHT22;40423;53.176;6.002;2022-08-21T04:43:18;14.70;99.90
54518;DHT22;40423;53.176;6.002;2022-08-21T04:45:48;14.70;99.90
54518;DHT22;40423;53.176;6.002;2022-08-21T04:48:16;14.70;99.90
54518;DHT22;40423;53.176;6.002;2022-08-21T04:55:53;14.70;99.90
54518;DHT22;40423;53.176;6.002;2022-08-21T04:58:21;14.80;99.90
54518;DHT22;40423;53.176;6.002;2022-08-21T05:00:48;14.80;99.90
54518;DHT22;40423;53.176;6.002;2022-08-21T05:03:15;14.80;99.90
54518;DHT22;40423;53.176;6.002;2022-08-21T05:05:42;14.80;99.90
54518;DHT22;40423;53.176;6.002;2022-08-21T05:08:11;14.80;99.90
54518;DHT22;40423;53.176;6.002;2022-08-21T05:10:38;14.90;99.90
54518;DHT22;40423;53.176;6.002;2022-08-21T05:13:05;14.90;99.90
54518;DHT22;40423;53.176;6.002;2022-08-21T05:15:31;14.90;99.90
54518;DHT22;40423;53.176;6.002;2022-08-21T05:17:57;15.00;99.90
54518;DHT22;40423;53.176;6.002;2022-08-21T05:20:23;15.00;99.90
54518;DHT22;40423;53.176;6.002;2022-08-21T05:22:48;15.10;99.90
54518;DHT22;40423;53.176;6.002;2022-08-21T05:25:14;15.10;99.90
54518;DHT22;40423;53.176;6.002;2022-08-21T05:27:40;15.20;99.90
54518;DHT22;40423;53.176;6.002;2022-08-21T05:30:07;15.20;99.90
54518;DHT22;40423;53.176;6.002;2022-08-21T05:32:33;15.20;99.90
54518;DHT22;40423;53.176;6.002;2022-08-21T05:34:59;15.30;99.90
54518;DHT22;40423;53.176;6.002;2022-08-21T05:37:25;15.40;99.90
54518;DHT22;40423;53.176;6.002;2022-08-21T05:39:51;15.40;99.90
54518;DHT22;40423;53.176;6.002;2022-08-21T05:42:16;15.50;99.90
54518;DHT22;40423;53.176;6.002;2022-08-21T05:44:42;15.50;99.90
54518;DHT22;40423;53.176;6.002;2022-08-21T05:47:09;15.60;99.90
54518;DHT22;40423;53.176;6.002;2022-08-21T05:49:36;15.60;99.90
54518;DHT22;40423;53.176;6.002;2022-08-21T05:52:03;15.70;99.90
54518;DHT22;40423;53.176;6.002;2022-08-21T05:54:29;15.80;99.90
54518;DHT22;40423;53.176;6.002;2022-08-21T05:56:55;15.80;99.90
54518;DHT22;40423;53.176;6.002;2022-08-21T05:59:22;15.90;99.90
54518;DHT22;40423;53.176;6.002;2022-08-21T06:01:48;16.00;99.90
54518;DHT22;40423;53.176;6.002;2022-08-21T06:04:14;16.10;99.90
54518;DHT22;40423;53.176;6.002;2022-08-21T06:06:40;16.20;99.90
54518;DHT22;40423;53.176;6.002;2022-08-21T06:09:05;16.20;99.90
54518;DHT22;40423;53.176;6.002;2022-08-21T06:11:32;16.30;99.90
54518;DHT22;40423;53.176;6.002;2022-08-21T06:13:58;16.40;99.90
54518;DHT22;40423;53.176;6.002;2022-08-21T06:16:25;16.50;99.90
54518;DHT22;40423;53.176;6.002;2022-08-21T06:18:51;16.40;99.90
54518;DHT22;40423;53.176;6.002;2022-08-21T06:21:17;16.70;99.90
54518;DHT22;40423;53.176;6.002;2022-08-21T06:23:43;16.80;99.90
54518;DHT22;40423;53.176;6.002;2022-08-21T06:26:11;16.90;99.90
54518;DHT22;40423;53.176;6.002;2022-08-21T06:28:38;16.90;99.90
54518;DHT22;40423;53.176;6.002;2022-08-21T06:31:25;17.00;99.90
54518;DHT22;40423;53.176;6.002;2022-08-21T06:33:51;17.00;99.90
54518;DHT22;40423;53.176;6.002;2022-08-21T06:36:17;17.10;99.90
54518;DHT22;40423;53.176;6.002;2022-08-21T06:38:43;17.10;99.90
54518;DHT22;40423;53.176;6.002;2022-08-21T06:41:09;17.20;99.90
54518;DHT22;40423;53.176;6.002;2022-08-21T06:43:35;17.30;99.90
54518;DHT22;40423;53.176;6.002;2022-08-21T06:46:00;17.40;99.90
54518;DHT22;40423;53.176;6.002;2022-08-21T06:48:26;17.50;99.90
54518;DHT22;40423;53.176;6.002;2022-08-21T06:50:52;17.60;99.90
54518;DHT22;40423;53.176;6.002;2022-08-21T06:53:19;17.70;99.90
54518;DHT22;40423;53.176;6.002;2022-08-21T06:55:46;17.80;99.90
54518;DHT22;40423;53.176;6.002;2022-08-21T06:58:13;17.90;99.90
54518;DHT22;40423;53.176;6.002;2022-08-21T07:00:41;18.00;99.90
54518;DHT22;40423;53.176;6.002;2022-08-21T07:03:07;18.10;99.90
54518;DHT22;40423;53.176;6.002;2022-08-21T07:05:41;18.20;99.90
54518;DHT22;40423;53.176;6.002;2022-08-21T07:08:06;18.30;99.90
54518;DHT22;40423;53.176;6.002;2022-08-21T07:10:32;18.40;99.90
54518;DHT22;40423;53.176;6.002;2022-08-21T07:12:58;18.50;99.90
54518;DHT22;40423;53.176;6.002;2022-08-21T07:15:23;18.50;99.90
54518;DHT22;40423;53.176;6.002;2022-08-21T07:17:49;18.70;99.90
54518;DHT22;40423;53.176;6.002;2022-08-21T07:20:15;18.70;99.90
54518;DHT22;40423;53.176;6.002;2022-08-21T07:22:41;18.80;99.90
54518;DHT22;40423;53.176;6.002;2022-08-21T07:25:08;18.90;99.90
54518;DHT22;40423;53.176;6.002;2022-08-21T07:27:34;19.00;99.90
54518;DHT22;40423;53.176;6.002;2022-08-21T07:29:59;19.10;99.90
54518;DHT22;40423;53.176;6.002;2022-08-21T07:32:25;19.10;99.90
54518;DHT22;40423;53.176;6.002;2022-08-21T07:34:51;19.30;99.90
54518;DHT22;40423;53.176;6.002;2022-08-21T07:37:17;19.40;99.90
54518;DHT22;40423;53.176;6.002;2022-08-21T07:39:43;19.60;99.90
54518;DHT22;40423;53.176;6.002;2022-08-21T07:42:09;19.70;99.90
54518;DHT22;40423;53.176;6.002;2022-08-21T07:44:35;19.80;99.90
54518;DHT22;40423;53.176;6.002;2022-08-21T07:47:01;19.90;99.90
54518;DHT22;40423;53.176;6.002;2022-08-21T07:49:28;20.00;99.90
54518;DHT22;40423;53.176;6.002;2022-08-21T07:51:54;19.90;99.90
54518;DHT22;40423;53.176;6.002;2022-08-21T07:54:20;20.10;99.90
54518;DHT22;40423;53.176;6.002;2022-08-21T07:56:46;20.10;99.90
54518;DHT22;40423;53.176;6.002;2022-08-21T07:59:12;20.20;99.90
54518;DHT22;40423;53.176;6.002;2022-08-21T08:01:37;20.20;99.90
54518;DHT22;40423;53.176;6.002;2022-08-21T08:04:03;20.20;99.90
54518;DHT22;40423;53.176;6.002;2022-08-21T08:06:29;20.30;99.90
54518;DHT22;40423;53.176;6.002;2022-08-21T08:08:56;20.30;99.90
54518;DHT22;40423;53.176;6.002;2022-08-21T08:11:21;20.40;99.90
54518;DHT22;40423;53.176;6.002;2022-08-21T08:13:49;20.40;99.90
54518;DHT22;40423;53.176;6.002;2022-08-21T08:16:15;20.40;99.90
54518;DHT22;40423;53.176;6.002;2022-08-21T08:18:41;20.50;99.90
54518;DHT22;40423;53.176;6.002;2022-08-21T08:21:08;20.60;99.90
54518;DHT22;40423;53.176;6.002;2022-08-21T08:23:34;20.80;99.90
54518;DHT22;40423;53.176;6.002;2022-08-21T08:26:00;21.00;99.90
54518;DHT22;40423;53.176;6.002;2022-08-21T08:28:28;21.10;99.90
54518;DHT22;40423;53.176;6.002;2022-08-21T08:30:54;21.10;99.90
54518;DHT22;40423;53.176;6.002;2022-08-21T08:33:21;21.20;99.90
54518;DHT22;40423;53.176;6.002;2022-08-21T08:35:49;21.20;99.90
54518;DHT22;40423;53.176;6.002;2022-08-21T08:38:17;21.30;99.90
54518;DHT22;40423;53.176;6.002;2022-08-21T08:43:29;21.60;99.90
54518;DHT22;40423;53.176;6.002;2022-08-21T08:45:57;21.70;99.90
54518;DHT22;40423;53.176;6.002;2022-08-21T08:52:01;21.80;99.90
54518;DHT22;40423;53.176;6.002;2022-08-21T08:54:35;21.80;99.90
54518;DHT22;40423;53.176;6.002;2022-08-21T08:57:09;21.80;99.90
54518;DHT22;40423;53.176;6.002;2022-08-21T08:59:39;21.90;99.90
54518;DHT22;40423;53.176;6.002;2022-08-21T09:02:06;22.00;99.90
54518;DHT22;40423;53.176;6.002;2022-08-21T09:04:34;22.30;99.90
54518;DHT22;40423;53.176;6.002;2022-08-21T09:07:16;22.50;99.90
54518;DHT22;40423;53.176;6.002;2022-08-21T09:09:51;22.50;99.90
54518;DHT22;40423;53.176;6.002;2022-08-21T09:15:44;22.10;99.90
54518;DHT22;40423;53.176;6.002;2022-08-21T09:21:31;22.20;99.90
54518;DHT22;40423;53.176;6.002;2022-08-21T09:24:16;22.40;99.90
54518;DHT22;40423;53.176;6.002;2022-08-21T09:27:04;22.70;99.90
54518;DHT22;40423;53.176;6.002;2022-08-21T09:29:39;22.70;99.90
54518;DHT22;40423;53.176;6.002;2022-08-21T09:37:23;22.40;99.90
54518;DHT22;40423;53.176;6.002;2022-08-21T09:39:49;22.20;99.90
54518;DHT22;40423;53.176;6.002;2022-08-21T09:42:23;22.10;99.90
54518;DHT22;40423;53.176;6.002;2022-08-21T09:45:00;22.00;99.90
54518;DHT22;40423;53.176;6.002;2022-08-21T09:47:29;22.00;99.90
54518;DHT22;40423;53.176;6.002;2022-08-21T09:49:55;22.00;99.90
54518;DHT22;40423;53.176;6.002;2022-08-21T09:52:23;21.90;99.90
54518;DHT22;40423;53.176;6.002;2022-08-21T09:54:52;21.90;99.90
54518;DHT22;40423;53.176;6.002;2022-08-21T09:57:27;22.10;99.90
54518;DHT22;40423;53.176;6.002;2022-08-21T10:00:32;22.30;99.90
54518;DHT22;40423;53.176;6.002;2022-08-21T10:03:13;22.60;99.90
54518;DHT22;40423;53.176;6.002;2022-08-21T10:06:03;22.80;99.90
54518;DHT22;40423;53.176;6.002;2022-08-21T10:08:31;23.00;99.90
54518;DHT22;40423;53.176;6.002;2022-08-21T10:11:07;23.30;99.90
54518;DHT22;40423;53.176;6.002;2022-08-21T10:19:32;23.20;99.90
54518;DHT22;40423;53.176;6.002;2022-08-21T10:30:11;23.90;99.80
54518;DHT22;40423;53.176;6.002;2022-08-21T10:35:26;24.20;99.70
54518;DHT22;40423;53.176;6.002;2022-08-21T10:40:53;24.60;98.10
54518;DHT22;40423;53.176;6.002;2022-08-21T10:49:20;23.90;95.90
54518;DHT22;40423;53.176;6.002;2022-08-21T10:54:54;23.40;97.30
54518;DHT22;40423;53.176;6.002;2022-08-21T11:00:43;22.80;95.70
54518;DHT22;40423;53.176;6.002;2022-08-21T11:03:34;22.60;96.50
54518;DHT22;40423;53.176;6.002;2022-08-21T11:06:22;22.50;97.40
54518;DHT22;40423;53.176;6.002;2022-08-21T11:09:10;22.50;98.10
54518;DHT22;40423;53.176;6.002;2022-08-21T11:11:44;22.60;98.10
54518;DHT22;40423;53.176;6.002;2022-08-21T11:17:36;23.00;97.30
54518;DHT22;40423;53.176;6.002;2022-08-21T11:20:13;23.20;97.70
54518;DHT22;40423;53.176;6.002;2022-08-21T11:22:56;23.50;96.00
54518;DHT22;40423;53.176;6.002;2022-08-21T11:25:32;23.70;96.40
54518;DHT22;40423;53.176;6.002;2022-08-21T11:28:10;23.80;96.50
54518;DHT22;40423;53.176;6.002;2022-08-21T11:30:50;24.10;96.80
54518;DHT22;40423;53.176;6.002;2022-08-21T11:36:21;23.80;96.30
54518;DHT22;40423;53.176;6.002;2022-08-21T11:38:59;23.60;96.60
54518;DHT22;40423;53.176;6.002;2022-08-21T11:41:30;23.50;96.90
54518;DHT22;40423;53.176;6.002;2022-08-21T11:46:49;23.60;97.00
54518;DHT22;40423;53.176;6.002;2022-08-21T11:52:17;23.70;96.30
54518;DHT22;40423;53.176;6.002;2022-08-21T11:54:49;23.80;95.50
54518;DHT22;40423;53.176;6.002;2022-08-21T12:02:39;23.80;95.50
54518;DHT22;40423;53.176;6.002;2022-08-21T12:05:10;23.70;94.80
54518;DHT22;40423;53.176;6.002;2022-08-21T12:07:44;23.70;95.10
54518;DHT22;40423;53.176;6.002;2022-08-21T12:10:16;23.70;95.50
54518;DHT22;40423;53.176;6.002;2022-08-21T12:12:44;23.30;95.00
54518;DHT22;40423;53.176;6.002;2022-08-21T12:15:15;23.20;94.70
54518;DHT22;40423;53.176;6.002;2022-08-21T12:20:37;23.20;95.40
54518;DHT22;40423;53.176;6.002;2022-08-21T12:25:45;23.20;95.10
54518;DHT22;40423;53.176;6.002;2022-08-21T12:28:15;23.30;95.50
54518;DHT22;40423;53.176;6.002;2022-08-21T12:30:44;23.40;95.40
54518;DHT22;40423;53.176;6.002;2022-08-21T12:33:32;23.40;95.00
54518;DHT22;40423;53.176;6.002;2022-08-21T12:36:28;23.50;95.20
54518;DHT22;40423;53.176;6.002;2022-08-21T12:39:12;23.50;95.10
54518;DHT22;40423;53.176;6.002;2022-08-21T12:41:58;23.30;94.50
54518;DHT22;40423;53.176;6.002;2022-08-21T12:44:39;23.30;94.50
54518;DHT22;40423;53.176;6.002;2022-08-21T12:47:17;23.10;94.40
54518;DHT22;40423;53.176;6.002;2022-08-21T12:49:56;23.20;95.00
54518;DHT22;40423;53.176;6.002;2022-08-21T12:52:41;23.30;95.50
54518;DHT22;40423;53.176;6.002;2022-08-21T12:55:13;23.30;95.00
54518;DHT22;40423;53.176;6.002;2022-08-21T12:57:41;23.30;94.70
54518;DHT22;40423;53.176;6.002;2022-08-21T13:00:11;23.30;94.60
54518;DHT22;40423;53.176;6.002;2022-08-21T13:02:46;23.30;94.60
54518;DHT22;40423;53.176;6.002;2022-08-21T13:05:16;23.50;93.60
54518;DHT22;40423;53.176;6.002;2022-08-21T13:07:47;23.60;92.90
54518;DHT22;40423;53.176;6.002;2022-08-21T13:10:29;23.80;93.60
54518;DHT22;40423;53.176;6.002;2022-08-21T13:12:59;24.10;93.90
54518;DHT22;40423;53.176;6.002;2022-08-21T13:15:29;24.30;93.40
54518;DHT22;40423;53.176;6.002;2022-08-21T13:17:55;24.30;92.50
54518;DHT22;40423;53.176;6.002;2022-08-21T13:20:39;24.50;93.30
54518;DHT22;40423;53.176;6.002;2022-08-21T13:23:27;24.70;93.20
54518;DHT22;40423;53.176;6.002;2022-08-21T13:25:54;24.90;92.60
54518;DHT22;40423;53.176;6.002;2022-08-21T13:28:20;24.90;92.50
54518;DHT22;40423;53.176;6.002;2022-08-21T13:30:49;24.80;92.40
54518;DHT22;40423;53.176;6.002;2022-08-21T13:33:17;24.60;91.60
54518;DHT22;40423;53.176;6.002;2022-08-21T13:38:26;24.30;92.70
54518;DHT22;40423;53.176;6.002;2022-08-21T13:40:59;24.10;92.70
54518;DHT22;40423;53.176;6.002;2022-08-21T13:43:32;24.00;92.60
54518;DHT22;40423;53.176;6.002;2022-08-21T13:45:58;23.90;93.10
54518;DHT22;40423;53.176;6.002;2022-08-21T13:48:28;23.80;93.00
54518;DHT22;40423;53.176;6.002;2022-08-21T13:50:56;23.70;93.20
54518;DHT22;40423;53.176;6.002;2022-08-21T13:56:20;23.80;92.90
54518;DHT22;40423;53.176;6.002;2022-08-21T13:58:46;23.70;93.60
54518;DHT22;40423;53.176;6.002;2022-08-21T14:01:28;23.90;93.90
54518;DHT22;40423;53.176;6.002;2022-08-21T14:04:05;24.20;93.20
54518;DHT22;40423;53.176;6.002;2022-08-21T14:06:36;24.10;92.50
54518;DHT22;40423;53.176;6.002;2022-08-21T14:09:28;24.00;92.80
54518;DHT22;40423;53.176;6.002;2022-08-21T14:11:56;23.90;93.10
54518;DHT22;40423;53.176;6.002;2022-08-21T14:14:31;24.00;93.40
54518;DHT22;40423;53.176;6.002;2022-08-21T14:17:05;24.10;93.10
54518;DHT22;40423;53.176;6.002;2022-08-21T14:19:46;24.00;92.30
54518;DHT22;40423;53.176;6.002;2022-08-21T14:22:23;24.10;91.90
54518;DHT22;40423;53.176;6.002;2022-08-21T14:24:59;24.00;92.40
54518;DHT22;40423;53.176;6.002;2022-08-21T14:27:28;24.00;92.10
54518;DHT22;40423;53.176;6.002;2022-08-21T14:29:59;24.10;93.00
54518;DHT22;40423;53.176;6.002;2022-08-21T14:32:28;24.20;92.70
54518;DHT22;40423;53.176;6.002;2022-08-21T14:34:56;24.10;92.20
54518;DHT22;40423;53.176;6.002;2022-08-21T14:37:23;24.10;92.30
54518;DHT22;40423;53.176;6.002;2022-08-21T14:39:49;23.80;92.40
54518;DHT22;40423;53.176;6.002;2022-08-21T14:42:15;23.80;92.30
54518;DHT22;40423;53.176;6.002;2022-08-21T14:44:42;23.70;92.70
54518;DHT22;40423;53.176;6.002;2022-08-21T14:47:08;23.70;92.20
54518;DHT22;40423;53.176;6.002;2022-08-21T14:49:34;23.70;92.80
54518;DHT22;40423;53.176;6.002;2022-08-21T14:52:00;23.80;92.50
54518;DHT22;40423;53.176;6.002;2022-08-21T14:54:28;23.70;92.80
54518;DHT22;40423;53.176;6.002;2022-08-21T14:56:54;23.70;93.40
54518;DHT22;40423;53.176;6.002;2022-08-21T14:59:21;23.60;93.80
54518;DHT22;40423;53.176;6.002;2022-08-21T15:01:46;23.60;94.00
54518;DHT22;40423;53.176;6.002;2022-08-21T15:04:13;23.50;93.70
54518;DHT22;40423;53.176;6.002;2022-08-21T15:06:39;23.30;93.90
54518;DHT22;40423;53.176;6.002;2022-08-21T15:09:04;23.30;94.10
54518;DHT22;40423;53.176;6.002;2022-08-21T15:11:32;23.20;94.20
54518;DHT22;40423;53.176;6.002;2022-08-21T15:14:01;23.20;94.20
54518;DHT22;40423;53.176;6.002;2022-08-21T15:16:28;23.00;94.60
54518;DHT22;40423;53.176;6.002;2022-08-21T15:18:57;23.00;94.60
54518;DHT22;40423;53.176;6.002;2022-08-21T15:21:23;23.10;94.70
54518;DHT22;40423;53.176;6.002;2022-08-21T15:23:48;23.10;94.50
54518;DHT22;40423;53.176;6.002;2022-08-21T15:26:14;23.10;94.40
54518;DHT22;40423;53.176;6.002;2022-08-21T15:28:40;23.10;94.60
54518;DHT22;40423;53.176;6.002;2022-08-21T15:31:07;23.10;94.40
54518;DHT22;40423;53.176;6.002;2022-08-21T15:33:33;23.20;94.20
54518;DHT22;40423;53.176;6.002;2022-08-21T15:35:59;23.00;93.70
54518;DHT22;40423;53.176;6.002;2022-08-21T15:38:25;22.80;94.50
54518;DHT22;40423;53.176;6.002;2022-08-21T15:40:51;22.80;94.60
54518;DHT22;40423;53.176;6.002;2022-08-21T15:43:29;22.80;94.60
54518;DHT22;40423;53.176;6.002;2022-08-21T15:45:55;22.80;94.20
54518;DHT22;40423;53.176;6.002;2022-08-21T15:48:21;22.70;94.20
54518;DHT22;40423;53.176;6.002;2022-08-21T15:50:47;22.60;93.70
54518;DHT22;40423;53.176;6.002;2022-08-21T15:53:13;22.60;94.20
54518;DHT22;40423;53.176;6.002;2022-08-21T15:55:39;22.50;93.90
54518;DHT22;40423;53.176;6.002;2022-08-21T15:58:05;22.40;94.10
54518;DHT22;40423;53.176;6.002;2022-08-21T16:00:34;22.30;94.40
54518;DHT22;40423;53.176;6.002;2022-08-21T16:03:03;22.30;94.60
54518;DHT22;40423;53.176;6.002;2022-08-21T16:05:29;22.30;94.70
54518;DHT22;40423;53.176;6.002;2022-08-21T16:07:55;22.30;94.70
54518;DHT22;40423;53.176;6.002;2022-08-21T16:10:23;22.30;94.50
54518;DHT22;40423;53.176;6.002;2022-08-21T16:12:54;22.30;93.90
54518;DHT22;40423;53.176;6.002;2022-08-21T16:15:21;22.30;94.10
54518;DHT22;40423;53.176;6.002;2022-08-21T16:17:48;22.30;94.00
54518;DHT22;40423;53.176;6.002;2022-08-21T16:20:22;22.30;94.00
54518;DHT22;40423;53.176;6.002;2022-08-21T16:22:49;22.30;94.20
54518;DHT22;40423;53.176;6.002;2022-08-21T16:25:16;22.40;94.40
54518;DHT22;40423;53.176;6.002;2022-08-21T16:27:44;22.40;94.20
54518;DHT22;40423;53.176;6.002;2022-08-21T16:30:12;22.40;94.10
54518;DHT22;40423;53.176;6.002;2022-08-21T16:32:40;22.30;94.00
54518;DHT22;40423;53.176;6.002;2022-08-21T16:35:07;22.30;94.20
54518;DHT22;40423;53.176;6.002;2022-08-21T16:37:35;22.20;94.30
54518;DHT22;40423;53.176;6.002;2022-08-21T16:40:00;22.10;94.30
54518;DHT22;40423;53.176;6.002;2022-08-21T16:42:26;22.10;94.30
54518;DHT22;40423;53.176;6.002;2022-08-21T16:44:53;22.10;94.10
54518;DHT22;40423;53.176;6.002;2022-08-21T16:47:19;22.10;94.10
54518;DHT22;40423;53.176;6.002;2022-08-21T16:49:45;22.10;94.10
54518;DHT22;40423;53.176;6.002;2022-08-21T16:52:11;22.10;94.20
54518;DHT22;40423;53.176;6.002;2022-08-21T16:54:37;22.10;94.00
54518;DHT22;40423;53.176;6.002;2022-08-21T16:57:03;22.00;94.00
54518;DHT22;40423;53.176;6.002;2022-08-21T16:59:29;22.00;94.40
54518;DHT22;40423;53.176;6.002;2022-08-21T17:01:55;22.00;94.50
54518;DHT22;40423;53.176;6.002;2022-08-21T17:04:21;21.80;94.20